KPBI/PBI METAR and TAF weather

Enter ICAO airport designator
Station Type Date Time Source
KPBI METAR 2020/01/20 09:53 UTC NOAA

KPBI 200953Z 28005KT 10SM SCT010 SCT035 BKN250 21/19 A3004 RMK AO2 SLP173 T02110189


Station Type Date Time Source
KPBI Decoded METAR 2020/01/20 09:53 UTC NOAA

PALM BEACH INTERNATIONAL, FL, United States (KPBI) 26-41N 80-06W 6M
Jan 20, 2020 - 04:53 AM EST / 2020.01.20 0953 UTC
Wind: from the W (280 degrees) at 6 MPH (5 KT):0
Visibility: 10 mile(s):0
Sky conditions: mostly cloudy
Temperature: 70.0 F (21.1 C)
Dew Point: 66.0 F (18.9 C)
Relative Humidity: 87%
Pressure (altimeter): 30.04 in. Hg (1017 hPa)
ob: KPBI 200953Z 28005KT 10SM SCT010 SCT035 BKN250 21/19 A3004 RMK AO2 SLP173 T02110189
cycle: 10

Station Type Date Time Source
KPBI TAF 2020/01/20 09:58 UTC NOAA

TAF
AMD KPBI 200858Z 2009/2106 32010KT P6SM VCSH FEW015 SCT025 BKN035
TEMPO 2009/2013 5SM SHRA SCT015 BKN025
FM201400 34012KT P6SM SCT015 BKN045
FM210200 34008KT P6SM SCT025 SCT050

Example: see airport list